sensor_id;sensor_type;location;lat;lon;timestamp;P1;durP1;ratioP1;P2;durP2;ratioP2
69369;SDS011;56530;42.640;23.372;2023-02-28T00:00:06;16.38;;;12.73;;
69369;SDS011;56530;42.640;23.372;2023-02-28T00:02:35;22.55;;;14.00;;
69369;SDS011;56530;42.640;23.372;2023-02-28T00:05:04;19.20;;;14.00;;
69369;SDS011;56530;42.640;23.372;2023-02-28T00:07:31;22.20;;;14.77;;
69369;SDS011;56530;42.640;23.372;2023-02-28T00:09:57;18.10;;;12.38;;
69369;SDS011;56530;42.640;23.372;2023-02-28T00:12:22;18.48;;;13.45;;
69369;SDS011;56530;42.640;23.372;2023-02-28T00:14:48;19.05;;;12.95;;
69369;SDS011;56530;42.640;23.372;2023-02-28T00:17:14;16.38;;;11.68;;
69369;SDS011;56530;42.640;23.372;2023-02-28T00:19:39;20.48;;;12.60;;
69369;SDS011;56530;42.640;23.372;2023-02-28T00:22:04;15.40;;;11.55;;
69369;SDS011;56530;42.640;23.372;2023-02-28T00:24:30;16.00;;;12.05;;
69369;SDS011;56530;42.640;23.372;2023-02-28T00:26:56;14.68;;;10.85;;
69369;SDS011;56530;42.640;23.372;2023-02-28T00:29:21;17.15;;;11.73;;
69369;SDS011;56530;42.640;23.372;2023-02-28T00:31:46;13.80;;;9.57;;
69369;SDS011;56530;42.640;23.372;2023-02-28T00:34:12;12.40;;;8.65;;
69369;SDS011;56530;42.640;23.372;2023-02-28T00:36:37;17.27;;;9.65;;
69369;SDS011;56530;42.640;23.372;2023-02-28T00:39:03;17.42;;;12.15;;
69369;SDS011;56530;42.640;23.372;2023-02-28T00:41:28;19.55;;;11.98;;
69369;SDS011;56530;42.640;23.372;2023-02-28T00:43:54;17.17;;;13.02;;
69369;SDS011;56530;42.640;23.372;2023-02-28T00:46:19;18.13;;;12.00;;
69369;SDS011;56530;42.640;23.372;2023-02-28T00:48:44;16.33;;;12.25;;
69369;SDS011;56530;42.640;23.372;2023-02-28T00:51:10;19.40;;;13.57;;
69369;SDS011;56530;42.640;23.372;2023-02-28T00:53:35;21.17;;;12.45;;
69369;SDS011;56530;42.640;23.372;2023-02-28T00:56:01;16.45;;;12.25;;
69369;SDS011;56530;42.640;23.372;2023-02-28T00:58:26;18.75;;;12.20;;
69369;SDS011;56530;42.640;23.372;2023-02-28T01:00:52;17.02;;;13.32;;
69369;SDS011;56530;42.640;23.372;2023-02-28T01:03:19;20.27;;;12.80;;
69369;SDS011;56530;42.640;23.372;2023-02-28T01:05:45;15.38;;;12.65;;
69369;SDS011;56530;42.640;23.372;2023-02-28T01:08:11;19.13;;;13.48;;
69369;SDS011;56530;42.640;23.372;2023-02-28T01:10:36;16.17;;;13.10;;
69369;SDS011;56530;42.640;23.372;2023-02-28T01:13:03;18.25;;;13.20;;
69369;SDS011;56530;42.640;23.372;2023-02-28T01:15:28;18.02;;;12.77;;
69369;SDS011;56530;42.640;23.372;2023-02-28T01:17:54;17.65;;;13.60;;
69369;SDS011;56530;42.640;23.372;2023-02-28T01:20:19;15.77;;;12.63;;
69369;SDS011;56530;42.640;23.372;2023-02-28T01:22:45;15.52;;;13.48;;
69369;SDS011;56530;42.640;23.372;2023-02-28T01:25:11;17.27;;;13.05;;
69369;SDS011;56530;42.640;23.372;2023-02-28T01:27:37;16.48;;;12.88;;
69369;SDS011;56530;42.640;23.372;2023-02-28T01:30:04;17.08;;;13.55;;
69369;SDS011;56530;42.640;23.372;2023-02-28T01:32:30;18.20;;;12.48;;
69369;SDS011;56530;42.640;23.372;2023-02-28T01:34:56;18.70;;;13.48;;
69369;SDS011;56530;42.640;23.372;2023-02-28T01:37:21;20.90;;;15.13;;
69369;SDS011;56530;42.640;23.372;2023-02-28T01:39:47;14.93;;;13.13;;
69369;SDS011;56530;42.640;23.372;2023-02-28T01:42:12;23.83;;;15.40;;
69369;SDS011;56530;42.640;23.372;2023-02-28T01:47:22;20.85;;;15.18;;
69369;SDS011;56530;42.640;23.372;2023-02-28T01:49:48;21.00;;;15.85;;
69369;SDS011;56530;42.640;23.372;2023-02-28T01:52:14;22.15;;;16.08;;
69369;SDS011;56530;42.640;23.372;2023-02-28T01:54:42;23.75;;;15.85;;
69369;SDS011;56530;42.640;23.372;2023-02-28T01:57:12;24.58;;;14.75;;
69369;SDS011;56530;42.640;23.372;2023-02-28T02:02:10;25.52;;;14.95;;
69369;SDS011;56530;42.640;23.372;2023-02-28T02:04:37;23.20;;;15.82;;
69369;SDS011;56530;42.640;23.372;2023-02-28T02:07:04;22.48;;;15.23;;
69369;SDS011;56530;42.640;23.372;2023-02-28T02:09:29;20.98;;;15.25;;
69369;SDS011;56530;42.640;23.372;2023-02-28T02:11:55;20.27;;;14.77;;
69369;SDS011;56530;42.640;23.372;2023-02-28T02:14:37;21.33;;;14.95;;
69369;SDS011;56530;42.640;23.372;2023-02-28T02:25:21;21.02;;;14.60;;
69369;SDS011;56530;42.640;23.372;2023-02-28T02:36:39;21.98;;;14.90;;
69369;SDS011;56530;42.640;23.372;2023-02-28T02:39:13;22.52;;;16.48;;
69369;SDS011;56530;42.640;23.372;2023-02-28T02:41:50;18.92;;;14.63;;
69369;SDS011;56530;42.640;23.372;2023-02-28T02:44:27;20.70;;;16.13;;
69369;SDS011;56530;42.640;23.372;2023-02-28T02:47:08;22.73;;;15.82;;
69369;SDS011;56530;42.640;23.372;2023-02-28T02:49:36;21.85;;;15.00;;
69369;SDS011;56530;42.640;23.372;2023-02-28T02:52:04;18.58;;;14.05;;
69369;SDS011;56530;42.640;23.372;2023-02-28T02:54:33;19.70;;;14.27;;
69369;SDS011;56530;42.640;23.372;2023-02-28T02:57:01;19.77;;;15.13;;
69369;SDS011;56530;42.640;23.372;2023-02-28T02:59:30;20.02;;;14.82;;
69369;SDS011;56530;42.640;23.372;2023-02-28T03:01:58;20.48;;;15.77;;
69369;SDS011;56530;42.640;23.372;2023-02-28T03:04:28;23.02;;;14.93;;
69369;SDS011;56530;42.640;23.372;2023-02-28T03:06:57;19.92;;;14.35;;
69369;SDS011;56530;42.640;23.372;2023-02-28T03:09:23;22.75;;;14.90;;
69369;SDS011;56530;42.640;23.372;2023-02-28T03:11:49;19.33;;;14.52;;
69369;SDS011;56530;42.640;23.372;2023-02-28T03:14:34;23.48;;;15.68;;
69369;SDS011;56530;42.640;23.372;2023-02-28T03:28:03;32.58;;;18.70;;
69369;SDS011;56530;42.640;23.372;2023-02-28T03:30:44;57.67;;;20.40;;
69369;SDS011;56530;42.640;23.372;2023-02-28T03:35:45;47.20;;;20.10;;
69369;SDS011;56530;42.640;23.372;2023-02-28T03:41:14;110.55;;;20.60;;
69369;SDS011;56530;42.640;23.372;2023-02-28T03:43:44;56.17;;;20.83;;
69369;SDS011;56530;42.640;23.372;2023-02-28T03:46:23;53.10;;;20.30;;
69369;SDS011;56530;42.640;23.372;2023-02-28T03:48:55;95.38;;;23.15;;
69369;SDS011;56530;42.640;23.372;2023-02-28T03:51:22;46.33;;;20.30;;
69369;SDS011;56530;42.640;23.372;2023-02-28T03:53:59;41.83;;;20.43;;
69369;SDS011;56530;42.640;23.372;2023-02-28T03:56:41;91.35;;;22.02;;
69369;SDS011;56530;42.640;23.372;2023-02-28T03:59:13;60.63;;;21.38;;
69369;SDS011;56530;42.640;23.372;2023-02-28T04:01:44;75.17;;;20.97;;
69369;SDS011;56530;42.640;23.372;2023-02-28T04:04:10;119.50;;;25.47;;
69369;SDS011;56530;42.640;23.372;2023-02-28T04:06:36;68.10;;;20.30;;
69369;SDS011;56530;42.640;23.372;2023-02-28T04:09:03;90.23;;;21.10;;
69369;SDS011;56530;42.640;23.372;2023-02-28T04:13:58;55.93;;;17.43;;
69369;SDS011;56530;42.640;23.372;2023-02-28T04:16:23;62.10;;;19.83;;
69369;SDS011;56530;42.640;23.372;2023-02-28T04:18:48;85.65;;;19.77;;
69369;SDS011;56530;42.640;23.372;2023-02-28T04:21:14;64.55;;;18.88;;
69369;SDS011;56530;42.640;23.372;2023-02-28T04:23:39;42.33;;;18.03;;
69369;SDS011;56530;42.640;23.372;2023-02-28T04:26:05;39.60;;;17.77;;
69369;SDS011;56530;42.640;23.372;2023-02-28T04:28:31;34.40;;;18.77;;
69369;SDS011;56530;42.640;23.372;2023-02-28T04:30:57;43.63;;;18.60;;
69369;SDS011;56530;42.640;23.372;2023-02-28T04:33:23;37.30;;;17.13;;
69369;SDS011;56530;42.640;23.372;2023-02-28T04:35:57;37.70;;;17.40;;
69369;SDS011;56530;42.640;23.372;2023-02-28T04:38:24;25.70;;;15.77;;
69369;SDS011;56530;42.640;23.372;2023-02-28T04:40:49;49.50;;;16.37;;
69369;SDS011;56530;42.640;23.372;2023-02-28T04:43:14;71.77;;;18.30;;
69369;SDS011;56530;42.640;23.372;2023-02-28T04:45:40;67.53;;;23.70;;
69369;SDS011;56530;42.640;23.372;2023-02-28T04:48:05;34.40;;;17.63;;
69369;SDS011;56530;42.640;23.372;2023-02-28T04:50:30;50.77;;;17.97;;
69369;SDS011;56530;42.640;23.372;2023-02-28T04:52:56;97.50;;;22.50;;
69369;SDS011;56530;42.640;23.372;2023-02-28T04:55:21;93.10;;;19.80;;
69369;SDS011;56530;42.640;23.372;2023-02-28T04:57:47;64.67;;;21.73;;
69369;SDS011;56530;42.640;23.372;2023-02-28T05:00:13;100.27;;;21.83;;
69369;SDS011;56530;42.640;23.372;2023-02-28T05:02:41;47.70;;;20.93;;
69369;SDS011;56530;42.640;23.372;2023-02-28T05:05:07;95.33;;;23.27;;
69369;SDS011;56530;42.640;23.372;2023-02-28T05:07:32;86.60;;;24.23;;
69369;SDS011;56530;42.640;23.372;2023-02-28T05:09:58;79.23;;;28.20;;
69369;SDS011;56530;42.640;23.372;2023-02-28T05:12:23;109.97;;;29.30;;
69369;SDS011;56530;42.640;23.372;2023-02-28T05:14:48;43.93;;;25.00;;
69369;SDS011;56530;42.640;23.372;2023-02-28T05:17:14;50.43;;;25.77;;
69369;SDS011;56530;42.640;23.372;2023-02-28T05:19:39;57.47;;;28.17;;
69369;SDS011;56530;42.640;23.372;2023-02-28T05:22:10;49.28;;;25.50;;
69369;SDS011;56530;42.640;23.372;2023-02-28T05:24:41;44.73;;;24.60;;
69369;SDS011;56530;42.640;23.372;2023-02-28T05:27:07;42.57;;;23.53;;
69369;SDS011;56530;42.640;23.372;2023-02-28T05:29:33;44.17;;;24.90;;
69369;SDS011;56530;42.640;23.372;2023-02-28T05:31:59;51.95;;;27.38;;
69369;SDS011;56530;42.640;23.372;2023-02-28T05:34:24;44.38;;;25.48;;
69369;SDS011;56530;42.640;23.372;2023-02-28T05:36:49;35.72;;;22.52;;
69369;SDS011;56530;42.640;23.372;2023-02-28T05:39:15;37.92;;;23.15;;
69369;SDS011;56530;42.640;23.372;2023-02-28T05:41:41;42.90;;;24.33;;
69369;SDS011;56530;42.640;23.372;2023-02-28T05:44:07;39.58;;;22.90;;
69369;SDS011;56530;42.640;23.372;2023-02-28T05:46:32;35.60;;;22.52;;
69369;SDS011;56530;42.640;23.372;2023-02-28T05:48:58;33.50;;;21.52;;
69369;SDS011;56530;42.640;23.372;2023-02-28T05:51:25;33.67;;;23.65;;
69369;SDS011;56530;42.640;23.372;2023-02-28T05:53:50;29.95;;;20.35;;
69369;SDS011;56530;42.640;23.372;2023-02-28T05:56:16;30.63;;;17.80;;
69369;SDS011;56530;42.640;23.372;2023-02-28T05:58:41;29.33;;;18.50;;
69369;SDS011;56530;42.640;23.372;2023-02-28T06:04:02;29.20;;;18.73;;
69369;SDS011;56530;42.640;23.372;2023-02-28T06:06:29;31.70;;;17.98;;
69369;SDS011;56530;42.640;23.372;2023-02-28T06:08:55;24.55;;;16.65;;
69369;SDS011;56530;42.640;23.372;2023-02-28T06:11:21;24.97;;;18.27;;
69369;SDS011;56530;42.640;23.372;2023-02-28T06:13:47;27.40;;;18.73;;
69369;SDS011;56530;42.640;23.372;2023-02-28T06:16:12;25.92;;;18.25;;
69369;SDS011;56530;42.640;23.372;2023-02-28T06:18:38;30.20;;;18.53;;
69369;SDS011;56530;42.640;23.372;2023-02-28T06:21:03;28.23;;;17.73;;
69369;SDS011;56530;42.640;23.372;2023-02-28T06:23:29;26.73;;;18.90;;
69369;SDS011;56530;42.640;23.372;2023-02-28T06:25:55;23.87;;;16.27;;
69369;SDS011;56530;42.640;23.372;2023-02-28T06:28:23;25.57;;;17.17;;
69369;SDS011;56530;42.640;23.372;2023-02-28T06:30:49;24.10;;;17.13;;
69369;SDS011;56530;42.640;23.372;2023-02-28T06:33:14;27.03;;;18.13;;
69369;SDS011;56530;42.640;23.372;2023-02-28T06:35:42;27.27;;;17.77;;
69369;SDS011;56530;42.640;23.372;2023-02-28T06:38:09;24.90;;;15.93;;
69369;SDS011;56530;42.640;23.372;2023-02-28T06:40:35;25.63;;;17.13;;
69369;SDS011;56530;42.640;23.372;2023-02-28T06:43:01;23.67;;;16.53;;
69369;SDS011;56530;42.640;23.372;2023-02-28T06:45:26;25.97;;;16.20;;
69369;SDS011;56530;42.640;23.372;2023-02-28T06:47:52;25.93;;;15.87;;
69369;SDS011;56530;42.640;23.372;2023-02-28T06:50:17;25.13;;;14.00;;
69369;SDS011;56530;42.640;23.372;2023-02-28T06:52:45;28.27;;;17.37;;
69369;SDS011;56530;42.640;23.372;2023-02-28T06:55:11;24.80;;;15.53;;
69369;SDS011;56530;42.640;23.372;2023-02-28T06:57:36;19.17;;;13.90;;
69369;SDS011;56530;42.640;23.372;2023-02-28T07:00:07;23.50;;;15.90;;
69369;SDS011;56530;42.640;23.372;2023-02-28T07:02:34;19.30;;;14.70;;
69369;SDS011;56530;42.640;23.372;2023-02-28T07:05:00;21.37;;;15.03;;
69369;SDS011;56530;42.640;23.372;2023-02-28T07:07:25;24.97;;;14.67;;
69369;SDS011;56530;42.640;23.372;2023-02-28T07:09:51;27.97;;;14.90;;
69369;SDS011;56530;42.640;23.372;2023-02-28T07:12:16;27.70;;;16.00;;
69369;SDS011;56530;42.640;23.372;2023-02-28T07:14:42;21.90;;;15.10;;
69369;SDS011;56530;42.640;23.372;2023-02-28T07:17:08;23.27;;;16.53;;
69369;SDS011;56530;42.640;23.372;2023-02-28T07:19:35;22.33;;;14.85;;
69369;SDS011;56530;42.640;23.372;2023-02-28T07:22:01;22.33;;;15.82;;
69369;SDS011;56530;42.640;23.372;2023-02-28T07:24:28;22.40;;;15.35;;
69369;SDS011;56530;42.640;23.372;2023-02-28T07:26:54;32.28;;;16.40;;
69369;SDS011;56530;42.640;23.372;2023-02-28T07:29:20;28.83;;;16.48;;
69369;SDS011;56530;42.640;23.372;2023-02-28T07:31:45;32.58;;;17.67;;
69369;SDS011;56530;42.640;23.372;2023-02-28T07:34:11;23.63;;;16.73;;
69369;SDS011;56530;42.640;23.372;2023-02-28T07:36:37;28.33;;;17.20;;
69369;SDS011;56530;42.640;23.372;2023-02-28T07:39:02;32.55;;;17.83;;
69369;SDS011;56530;42.640;23.372;2023-02-28T07:41:29;31.15;;;17.55;;
69369;SDS011;56530;42.640;23.372;2023-02-28T07:43:54;29.35;;;17.35;;
69369;SDS011;56530;42.640;23.372;2023-02-28T07:46:22;26.45;;;17.67;;
69369;SDS011;56530;42.640;23.372;2023-02-28T07:48:47;29.42;;;17.55;;
69369;SDS011;56530;42.640;23.372;2023-02-28T07:51:13;30.30;;;17.75;;
69369;SDS011;56530;42.640;23.372;2023-02-28T07:53:38;32.00;;;18.98;;
69369;SDS011;56530;42.640;23.372;2023-02-28T07:56:04;28.48;;;17.40;;
69369;SDS011;56530;42.640;23.372;2023-02-28T07:58:30;26.10;;;18.02;;
69369;SDS011;56530;42.640;23.372;2023-02-28T08:00:56;35.58;;;21.58;;
69369;SDS011;56530;42.640;23.372;2023-02-28T08:03:22;33.22;;;20.85;;
69369;SDS011;56530;42.640;23.372;2023-02-28T08:05:48;32.15;;;22.92;;
69369;SDS011;56530;42.640;23.372;2023-02-28T08:08:14;32.17;;;20.95;;
69369;SDS011;56530;42.640;23.372;2023-02-28T08:10:40;31.52;;;19.95;;
69369;SDS011;56530;42.640;23.372;2023-02-28T08:13:06;34.55;;;19.10;;
69369;SDS011;56530;42.640;23.372;2023-02-28T08:15:31;26.33;;;18.13;;
69369;SDS011;56530;42.640;23.372;2023-02-28T08:17:57;33.25;;;19.05;;
69369;SDS011;56530;42.640;23.372;2023-02-28T08:20:23;34.10;;;18.27;;
69369;SDS011;56530;42.640;23.372;2023-02-28T08:22:49;33.38;;;17.75;;
69369;SDS011;56530;42.640;23.372;2023-02-28T08:25:15;32.33;;;17.90;;
69369;SDS011;56530;42.640;23.372;2023-02-28T08:27:40;31.92;;;19.05;;
69369;SDS011;56530;42.640;23.372;2023-02-28T08:30:06;24.95;;;17.60;;
69369;SDS011;56530;42.640;23.372;2023-02-28T08:32:32;36.33;;;18.38;;
69369;SDS011;56530;42.640;23.372;2023-02-28T08:34:58;34.10;;;17.95;;
69369;SDS011;56530;42.640;23.372;2023-02-28T08:37:23;25.98;;;15.43;;
69369;SDS011;56530;42.640;23.372;2023-02-28T08:39:49;30.52;;;16.85;;
69369;SDS011;56530;42.640;23.372;2023-02-28T08:42:14;34.42;;;16.75;;
69369;SDS011;56530;42.640;23.372;2023-02-28T08:44:40;24.73;;;16.83;;
69369;SDS011;56530;42.640;23.372;2023-02-28T08:47:05;25.45;;;14.07;;
69369;SDS011;56530;42.640;23.372;2023-02-28T08:49:31;27.20;;;15.20;;
69369;SDS011;56530;42.640;23.372;2023-02-28T08:51:56;25.00;;;14.85;;
69369;SDS011;56530;42.640;23.372;2023-02-28T08:54:22;24.63;;;12.77;;
69369;SDS011;56530;42.640;23.372;2023-02-28T08:56:48;34.75;;;16.35;;
69369;SDS011;56530;42.640;23.372;2023-02-28T08:59:13;22.80;;;15.77;;
69369;SDS011;56530;42.640;23.372;2023-02-28T09:01:39;28.90;;;17.17;;
69369;SDS011;56530;42.640;23.372;2023-02-28T09:04:06;30.95;;;14.35;;
69369;SDS011;56530;42.640;23.372;2023-02-28T09:06:33;27.52;;;13.65;;
69369;SDS011;56530;42.640;23.372;2023-02-28T09:08:59;24.23;;;13.50;;
69369;SDS011;56530;42.640;23.372;2023-02-28T09:11:26;24.42;;;15.40;;
69369;SDS011;56530;42.640;23.372;2023-02-28T09:13:51;25.98;;;14.70;;
69369;SDS011;56530;42.640;23.372;2023-02-28T09:16:17;22.85;;;14.43;;
69369;SDS011;56530;42.640;23.372;2023-02-28T09:18:42;30.85;;;14.75;;
69369;SDS011;56530;42.640;23.372;2023-02-28T09:21:11;28.67;;;14.32;;
69369;SDS011;56530;42.640;23.372;2023-02-28T09:23:39;28.98;;;14.80;;
69369;SDS011;56530;42.640;23.372;2023-02-28T09:26:06;27.38;;;14.30;;
69369;SDS011;56530;42.640;23.372;2023-02-28T09:28:32;28.35;;;13.65;;
69369;SDS011;56530;42.640;23.372;2023-02-28T09:30:57;28.73;;;16.33;;
69369;SDS011;56530;42.640;23.372;2023-02-28T09:33:24;24.73;;;14.25;;
69369;SDS011;56530;42.640;23.372;2023-02-28T09:35:50;22.30;;;13.57;;
69369;SDS011;56530;42.640;23.372;2023-02-28T09:38:16;32.80;;;17.73;;
69369;SDS011;56530;42.640;23.372;2023-02-28T09:41:02;27.23;;;13.82;;
69369;SDS011;56530;42.640;23.372;2023-02-28T09:43:29;30.52;;;16.02;;
69369;SDS011;56530;42.640;23.372;2023-02-28T09:48:45;24.77;;;14.27;;
69369;SDS011;56530;42.640;23.372;2023-02-28T09:51:30;26.25;;;14.38;;
69369;SDS011;56530;42.640;23.372;2023-02-28T09:54:00;28.98;;;15.73;;
69369;SDS011;56530;42.640;23.372;2023-02-28T09:56:29;27.92;;;15.55;;
69369;SDS011;56530;42.640;23.372;2023-02-28T09:58:59;27.83;;;13.15;;
69369;SDS011;56530;42.640;23.372;2023-02-28T10:04:08;22.92;;;12.25;;
69369;SDS011;56530;42.640;23.372;2023-02-28T10:06:51;27.17;;;14.18;;
69369;SDS011;56530;42.640;23.372;2023-02-28T10:09:25;27.38;;;12.07;;
69369;SDS011;56530;42.640;23.372;2023-02-28T10:11:55;25.05;;;11.18;;
69369;SDS011;56530;42.640;23.372;2023-02-28T10:14:23;25.90;;;12.27;;
69369;SDS011;56530;42.640;23.372;2023-02-28T10:16:50;29.35;;;13.73;;
69369;SDS011;56530;42.640;23.372;2023-02-28T10:21:52;24.33;;;13.45;;
69369;SDS011;56530;42.640;23.372;2023-02-28T10:29:43;25.10;;;12.43;;
69369;SDS011;56530;42.640;23.372;2023-02-28T10:32:11;24.83;;;13.82;;
69369;SDS011;56530;42.640;23.372;2023-02-28T10:34:39;25.10;;;13.57;;
69369;SDS011;56530;42.640;23.372;2023-02-28T10:37:05;23.92;;;14.00;;
69369;SDS011;56530;42.640;23.372;2023-02-28T10:39:34;20.80;;;11.27;;
69369;SDS011;56530;42.640;23.372;2023-02-28T10:41:59;22.65;;;12.27;;
69369;SDS011;56530;42.640;23.372;2023-02-28T10:44:25;21.65;;;12.02;;
69369;SDS011;56530;42.640;23.372;2023-02-28T10:46:50;31.10;;;14.20;;
69369;SDS011;56530;42.640;23.372;2023-02-28T10:49:20;18.65;;;11.75;;
69369;SDS011;56530;42.640;23.372;2023-02-28T10:51:48;28.77;;;11.25;;
69369;SDS011;56530;42.640;23.372;2023-02-28T10:54:16;31.25;;;13.98;;
69369;SDS011;56530;42.640;23.372;2023-02-28T10:56:44;23.58;;;11.57;;
69369;SDS011;56530;42.640;23.372;2023-02-28T11:01:51;27.85;;;11.65;;
69369;SDS011;56530;42.640;23.372;2023-02-28T11:07:04;25.92;;;12.27;;
69369;SDS011;56530;42.640;23.372;2023-02-28T11:09:36;26.38;;;13.80;;
69369;SDS011;56530;42.640;23.372;2023-02-28T11:12:04;29.63;;;12.73;;
69369;SDS011;56530;42.640;23.372;2023-02-28T11:14:33;22.95;;;13.80;;
69369;SDS011;56530;42.640;23.372;2023-02-28T11:17:13;26.67;;;14.05;;
69369;SDS011;56530;42.640;23.372;2023-02-28T11:19:44;27.05;;;13.57;;
69369;SDS011;56530;42.640;23.372;2023-02-28T11:22:11;21.40;;;12.43;;
69369;SDS011;56530;42.640;23.372;2023-02-28T11:24:44;23.33;;;11.68;;
69369;SDS011;56530;42.640;23.372;2023-02-28T11:29:55;29.75;;;12.98;;
69369;SDS011;56530;42.640;23.372;2023-02-28T11:32:24;25.13;;;14.45;;
69369;SDS011;56530;42.640;23.372;2023-02-28T11:35:13;20.13;;;12.25;;
69369;SDS011;56530;42.640;23.372;2023-02-28T11:37:47;23.52;;;15.05;;
69369;SDS011;56530;42.640;23.372;2023-02-28T11:40:17;26.27;;;15.18;;
69369;SDS011;56530;42.640;23.372;2023-02-28T11:42:54;35.35;;;16.13;;
69369;SDS011;56530;42.640;23.372;2023-02-28T11:45:39;27.88;;;12.00;;
69369;SDS011;56530;42.640;23.372;2023-02-28T11:48:24;30.95;;;11.60;;
69369;SDS011;56530;42.640;23.372;2023-02-28T11:51:27;23.67;;;14.68;;
69369;SDS011;56530;42.640;23.372;2023-02-28T11:54:03;28.88;;;14.70;;
69369;SDS011;56530;42.640;23.372;2023-02-28T11:56:46;29.77;;;14.50;;
69369;SDS011;56530;42.640;23.372;2023-02-28T12:17:51;28.25;;;13.52;;
69369;SDS011;56530;42.640;23.372;2023-02-28T12:20:25;24.38;;;14.02;;
69369;SDS011;56530;42.640;23.372;2023-02-28T12:26:15;30.52;;;15.70;;
69369;SDS011;56530;42.640;23.372;2023-02-28T12:28:49;33.53;;;13.52;;
69369;SDS011;56530;42.640;23.372;2023-02-28T12:31:20;26.40;;;14.52;;
69369;SDS011;56530;42.640;23.372;2023-02-28T12:33:52;17.50;;;11.70;;
69369;SDS011;56530;42.640;23.372;2023-02-28T12:36:19;24.85;;;15.45;;
69369;SDS011;56530;42.640;23.372;2023-02-28T12:41:45;22.35;;;12.70;;
69369;SDS011;56530;42.640;23.372;2023-02-28T12:44:18;22.75;;;13.23;;
69369;SDS011;56530;42.640;23.372;2023-02-28T12:47:09;24.77;;;13.82;;
69369;SDS011;56530;42.640;23.372;2023-02-28T12:49:39;27.27;;;14.88;;
69369;SDS011;56530;42.640;23.372;2023-02-28T12:52:31;27.70;;;15.20;;
69369;SDS011;56530;42.640;23.372;2023-02-28T12:55:04;25.85;;;13.70;;
69369;SDS011;56530;42.640;23.372;2023-02-28T12:57:57;18.77;;;11.60;;
69369;SDS011;56530;42.640;23.372;2023-02-28T13:07:00;25.27;;;11.40;;
69369;SDS011;56530;42.640;23.372;2023-02-28T13:09:51;23.50;;;13.60;;
69369;SDS011;56530;42.640;23.372;2023-02-28T13:12:18;22.85;;;10.80;;
69369;SDS011;56530;42.640;23.372;2023-02-28T13:14:45;21.73;;;12.88;;
69369;SDS011;56530;42.640;23.372;2023-02-28T13:17:18;20.15;;;10.85;;
69369;SDS011;56530;42.640;23.372;2023-02-28T13:19:45;26.10;;;12.18;;
69369;SDS011;56530;42.640;23.372;2023-02-28T13:25:04;20.90;;;10.05;;
69369;SDS011;56530;42.640;23.372;2023-02-28T13:27:57;24.02;;;10.82;;
69369;SDS011;56530;42.640;23.372;2023-02-28T13:33:36;22.90;;;10.43;;
69369;SDS011;56530;42.640;23.372;2023-02-28T13:36:10;17.10;;;10.75;;
69369;SDS011;56530;42.640;23.372;2023-02-28T13:38:42;19.42;;;9.93;;
69369;SDS011;56530;42.640;23.372;2023-02-28T14:05:15;17.50;;;11.02;;
69369;SDS011;56530;42.640;23.372;2023-02-28T14:07:50;21.88;;;11.98;;
69369;SDS011;56530;42.640;23.372;2023-02-28T14:10:31;23.20;;;12.40;;
69369;SDS011;56530;42.640;23.372;2023-02-28T14:21:08;36.13;;;11.93;;
69369;SDS011;56530;42.640;23.372;2023-02-28T14:29:24;29.38;;;11.98;;
69369;SDS011;56530;42.640;23.372;2023-02-28T14:37:15;23.77;;;11.32;;
69369;SDS011;56530;42.640;23.372;2023-02-28T14:39:43;18.92;;;11.35;;
69369;SDS011;56530;42.640;23.372;2023-02-28T14:42:29;25.02;;;12.18;;
69369;SDS011;56530;42.640;23.372;2023-02-28T14:44:55;25.73;;;10.13;;
69369;SDS011;56530;42.640;23.372;2023-02-28T14:47:25;22.92;;;12.57;;
69369;SDS011;56530;42.640;23.372;2023-02-28T14:50:01;25.48;;;12.20;;
69369;SDS011;56530;42.640;23.372;2023-02-28T14:52:29;24.40;;;12.65;;
69369;SDS011;56530;42.640;23.372;2023-02-28T14:55:00;25.60;;;12.40;;
69369;SDS011;56530;42.640;23.372;2023-02-28T14:57:29;23.42;;;10.85;;
69369;SDS011;56530;42.640;23.372;2023-02-28T14:59:56;28.05;;;12.57;;
69369;SDS011;56530;42.640;23.372;2023-02-28T15:02:29;19.90;;;9.30;;
69369;SDS011;56530;42.640;23.372;2023-02-28T15:04:58;20.13;;;11.23;;
69369;SDS011;56530;42.640;23.372;2023-02-28T15:07:25;22.83;;;11.20;;
69369;SDS011;56530;42.640;23.372;2023-02-28T15:10:07;17.08;;;10.02;;
69369;SDS011;56530;42.640;23.372;2023-02-28T15:12:35;16.77;;;7.85;;
69369;SDS011;56530;42.640;23.372;2023-02-28T15:15:01;16.20;;;7.95;;
69369;SDS011;56530;42.640;23.372;2023-02-28T15:17:26;19.20;;;9.20;;
69369;SDS011;56530;42.640;23.372;2023-02-28T15:19:52;26.88;;;9.10;;
69369;SDS011;56530;42.640;23.372;2023-02-28T15:22:19;13.35;;;9.45;;
69369;SDS011;56530;42.640;23.372;2023-02-28T15:24:54;17.98;;;10.45;;
69369;SDS011;56530;42.640;23.372;2023-02-28T15:27:21;21.88;;;11.15;;
69369;SDS011;56530;42.640;23.372;2023-02-28T15:29:51;21.00;;;9.70;;
69369;SDS011;56530;42.640;23.372;2023-02-28T15:32:24;15.38;;;11.02;;
69369;SDS011;56530;42.640;23.372;2023-02-28T15:34:50;26.10;;;10.60;;
69369;SDS011;56530;42.640;23.372;2023-02-28T15:39:56;24.70;;;10.23;;
69369;SDS011;56530;42.640;23.372;2023-02-28T15:42:27;14.00;;;9.40;;
69369;SDS011;56530;42.640;23.372;2023-02-28T15:44:53;17.40;;;10.05;;
69369;SDS011;56530;42.640;23.372;2023-02-28T15:47:19;18.90;;;9.05;;
69369;SDS011;56530;42.640;23.372;2023-02-28T15:49:56;17.23;;;9.20;;
69369;SDS011;56530;42.640;23.372;2023-02-28T15:52:40;12.23;;;8.65;;
69369;SDS011;56530;42.640;23.372;2023-02-28T15:55:15;14.27;;;7.35;;
69369;SDS011;56530;42.640;23.372;2023-02-28T15:57:44;14.75;;;8.55;;
69369;SDS011;56530;42.640;23.372;2023-02-28T16:00:11;12.15;;;7.95;;
69369;SDS011;56530;42.640;23.372;2023-02-28T16:02:39;12.10;;;7.45;;
69369;SDS011;56530;42.640;23.372;2023-02-28T16:07:40;13.55;;;7.18;;
69369;SDS011;56530;42.640;23.372;2023-02-28T16:10:08;8.80;;;7.20;;
69369;SDS011;56530;42.640;23.372;2023-02-28T16:12:36;11.73;;;7.95;;
69369;SDS011;56530;42.640;23.372;2023-02-28T16:15:15;17.25;;;8.68;;
69369;SDS011;56530;42.640;23.372;2023-02-28T16:17:43;11.15;;;6.90;;
69369;SDS011;56530;42.640;23.372;2023-02-28T16:20:13;15.25;;;8.45;;
69369;SDS011;56530;42.640;23.372;2023-02-28T16:22:46;11.43;;;7.68;;
69369;SDS011;56530;42.640;23.372;2023-02-28T16:25:16;12.40;;;8.55;;
69369;SDS011;56530;42.640;23.372;2023-02-28T16:27:43;12.13;;;8.02;;
69369;SDS011;56530;42.640;23.372;2023-02-28T16:30:19;6.90;;;5.47;;
69369;SDS011;56530;42.640;23.372;2023-02-28T16:32:49;9.40;;;6.90;;
69369;SDS011;56530;42.640;23.372;2023-02-28T16:35:15;10.63;;;7.22;;
69369;SDS011;56530;42.640;23.372;2023-02-28T16:37:42;9.38;;;6.95;;
69369;SDS011;56530;42.640;23.372;2023-02-28T16:40:29;10.13;;;6.90;;
69369;SDS011;56530;42.640;23.372;2023-02-28T16:42:55;9.15;;;6.43;;
69369;SDS011;56530;42.640;23.372;2023-02-28T16:45:27;11.73;;;7.07;;
69369;SDS011;56530;42.640;23.372;2023-02-28T16:47:53;10.00;;;6.87;;
69369;SDS011;56530;42.640;23.372;2023-02-28T16:52:51;8.32;;;6.50;;